CheckWX is a tool to help pilots better visualize weather data.  It is not intended as a substitute for an official pre-flight weather briefing.

17:51:29 UTC

LUKK METAR
Chişinău International Airport
Chişinău, Moldova
Current

21 mins ago

LUKK 141730Z 13007KT 2600 BR OVC002 08/08 Q1004 R08/290152 NOSIG
Observed
Dec-14 @ 17:30 UTC
Wind
  • 130° at 7 KTS
Visibility
2,600 meters
Flight Rules
LIFR
Conditions
Mist
Cloud Levels
  • Overcast at 200' AGL
Temperature
C / 46°F
Dewpoint
C / 46°F
Humidity
100%
Altimeter
29.65" Hg
Pressure
1003.92 hPa
Previous

51 mins ago

LUKK 141700Z 11006KT 2200 0650SW R08/0800U BR PRFG OVC002 07/07 Q1004 R08/290152 NOSIG
Observed
Dec-14 @ 17:00 UTC
Wind
  • 110° at 6 KTS
Visibility
2,200 meters
Flight Rules
LIFR
Conditions
Partial Fog, Mist
Cloud Levels
  • Overcast at 200' AGL
Temperature
C / 45°F
Dewpoint
C / 45°F
Humidity
100%
Altimeter
29.65" Hg
Pressure
1003.92 hPa
Previous

1 hour ago

LUKK 141630Z 10005KT 0500 0450S R08/0650N FG VV003 07/07 Q1004 R08/290152 NOSIG
Observed
Dec-14 @ 16:30 UTC
Wind
  • 100° at 5 KTS
Visibility
500 meters
Flight Rules
LIFR
Conditions
Fog
Cloud Levels
  • Vertical visibility at 300' AGL
Temperature
C / 45°F
Dewpoint
C / 45°F
Humidity
100%
Altimeter
29.65" Hg
Pressure
1003.92 hPa